createdAt,value
2023-03-08T00:01:25.480Z,94.48
2023-03-08T00:03:58.294Z,94.60
2023-03-08T00:06:29.765Z,93.80
2023-03-08T00:09:01.911Z,93.86
2023-03-08T00:11:33.209Z,93.52
2023-03-08T00:14:04.487Z,94.53
2023-03-08T00:16:35.771Z,94.63
2023-03-08T00:19:07.102Z,93.72
2023-03-08T00:21:38.420Z,94.74
2023-03-08T00:24:11.809Z,94.29
2023-03-08T00:26:43.734Z,94.61
2023-03-08T00:29:15.091Z,93.82
2023-03-08T00:31:46.500Z,94.97
2023-03-08T00:34:18.231Z,94.22
2023-03-08T00:36:49.517Z,94.61
2023-03-08T00:39:20.791Z,93.99
2023-03-08T00:41:52.151Z,94.35
2023-03-08T00:44:23.524Z,94.96
2023-03-08T00:46:55.061Z,94.89
2023-03-08T00:49:26.448Z,95.22
2023-03-08T00:51:57.723Z,95.24
2023-03-08T00:54:32.406Z,95.37
2023-03-08T00:57:03.875Z,94.58
2023-03-08T00:59:35.229Z,94.77
2023-03-08T01:02:06.816Z,94.96
2023-03-08T01:04:38.168Z,94.51
2023-03-08T01:07:09.435Z,94.78
2023-03-08T01:09:40.702Z,95.24
2023-03-08T01:12:11.965Z,94.75
2023-03-08T01:14:43.476Z,95.21
2023-03-08T01:17:14.788Z,95.38
2023-03-08T01:19:46.053Z,95.26
2023-03-08T01:22:17.316Z,96.26
2023-03-08T01:24:49.269Z,95.86
2023-03-08T01:27:20.538Z,96.21
2023-03-08T01:29:51.829Z,95.80
2023-03-08T01:32:23.240Z,95.75
2023-03-08T01:34:55.446Z,95.84
2023-03-08T01:37:26.716Z,95.55
2023-03-08T01:39:58.307Z,96.49
2023-03-08T01:42:29.811Z,96.03
2023-03-08T01:45:03.651Z,95.46
2023-03-08T01:47:36.075Z,96.65
2023-03-08T01:50:12.791Z,96.82
2023-03-08T01:52:51.574Z,96.41
2023-03-08T01:55:22.940Z,96.35
2023-03-08T01:57:55.987Z,96.33
2023-03-08T02:00:27.632Z,95.90
2023-03-08T02:03:06.188Z,97.05
2023-03-08T02:05:41.890Z,96.97
2023-03-08T02:08:13.193Z,96.44
2023-03-08T02:10:44.707Z,96.27
2023-03-08T02:13:17.324Z,96.46
2023-03-08T02:15:51.721Z,97.09
2023-03-08T02:18:23.265Z,96.93
2023-03-08T02:20:54.576Z,96.76
2023-03-08T02:23:26.068Z,96.79
2023-03-08T02:26:02.458Z,97.37
2023-03-08T02:28:34.220Z,97.61
2023-03-08T02:31:06.254Z,97.35
2023-03-08T02:33:37.656Z,96.95
2023-03-08T02:36:09.697Z,96.86
2023-03-08T02:38:41.167Z,96.92
2023-03-08T02:41:12.430Z,96.99
2023-03-08T02:43:43.744Z,96.89
2023-03-08T02:46:15.163Z,97.46
2023-03-08T02:48:46.532Z,97.32
2023-03-08T02:51:17.805Z,96.96
2023-03-08T02:53:49.181Z,96.71
2023-03-08T02:56:20.763Z,97.51
2023-03-08T02:58:52.037Z,96.87
2023-03-08T03:01:23.758Z,96.82
2023-03-08T03:03:55.361Z,97.40
2023-03-08T03:06:26.693Z,97.13
2023-03-08T03:08:58.074Z,96.74
2023-03-08T03:11:29.328Z,97.35
2023-03-08T03:14:01.081Z,96.97
2023-03-08T03:16:32.513Z,97.11
2023-03-08T03:19:04.228Z,97.00
2023-03-08T03:21:35.643Z,97.29
2023-03-08T03:24:07.475Z,96.93
2023-03-08T03:26:38.999Z,96.96
2023-03-08T03:29:10.317Z,97.39
2023-03-08T03:31:41.772Z,96.64
2023-03-08T03:34:13.039Z,96.99
2023-03-08T03:36:44.313Z,97.00
2023-03-08T03:39:15.754Z,96.82
2023-03-08T03:41:47.010Z,97.04
2023-03-08T03:44:18.283Z,96.91
2023-03-08T03:46:49.693Z,97.00
2023-03-08T03:49:21.088Z,97.26
2023-03-08T03:51:52.366Z,96.94
2023-03-08T03:54:23.739Z,96.88
2023-03-08T03:56:58.059Z,97.09
2023-03-08T03:59:29.339Z,96.47
2023-03-08T04:02:00.631Z,96.59
2023-03-08T04:04:31.905Z,97.11
2023-03-08T04:07:03.288Z,96.88
2023-03-08T04:09:35.760Z,96.80
2023-03-08T04:12:07.268Z,97.05
2023-03-08T04:14:40.230Z,96.67
2023-03-08T04:17:11.510Z,97.00
2023-03-08T04:19:42.832Z,97.02
2023-03-08T04:22:14.096Z,96.73
2023-03-08T04:24:45.389Z,96.23
2023-03-08T04:27:16.660Z,96.70
2023-03-08T04:29:47.989Z,96.86
2023-03-08T04:32:19.299Z,96.24
2023-03-08T04:34:50.640Z,96.55
2023-03-08T04:37:22.024Z,97.03
2023-03-08T04:39:53.296Z,96.80
2023-03-08T04:42:24.667Z,96.19
2023-03-08T04:44:55.948Z,96.64
2023-03-08T04:47:27.215Z,96.59
2023-03-08T04:49:58.556Z,96.52
2023-03-08T04:52:29.851Z,96.63
2023-03-08T04:55:01.245Z,96.20
2023-03-08T04:57:32.532Z,96.56
2023-03-08T05:00:05.793Z,96.68
2023-03-08T05:02:37.129Z,96.19
2023-03-08T05:05:08.665Z,96.61
2023-03-08T05:07:40.062Z,96.29
2023-03-08T05:10:11.605Z,97.15
2023-03-08T05:12:42.963Z,96.54
2023-03-08T05:15:14.338Z,96.19
2023-03-08T05:17:45.692Z,96.65
2023-03-08T05:20:17.921Z,96.75
2023-03-08T05:22:58.531Z,96.59
2023-03-08T05:25:31.353Z,96.48
2023-03-08T05:28:02.725Z,96.57
2023-03-08T05:30:33.994Z,96.54
2023-03-08T05:33:05.300Z,96.08
2023-03-08T05:35:36.636Z,96.25
2023-03-08T05:38:08.110Z,96.57
2023-03-08T05:40:39.443Z,96.14
2023-03-08T05:43:10.709Z,96.46
2023-03-08T05:45:42.244Z,96.12
2023-03-08T05:48:13.550Z,96.35
2023-03-08T05:50:44.809Z,96.12
2023-03-08T05:53:16.084Z,96.52
2023-03-08T05:55:47.589Z,96.34
2023-03-08T05:58:18.927Z,96.61
2023-03-08T06:00:50.193Z,96.38
2023-03-08T06:03:21.521Z,96.03
2023-03-08T06:05:52.820Z,96.39
2023-03-08T06:08:24.088Z,96.41
2023-03-08T06:10:55.359Z,96.59
2023-03-08T06:13:26.638Z,96.22
2023-03-08T06:15:59.799Z,95.59
2023-03-08T06:18:31.897Z,96.41
2023-03-08T06:21:12.259Z,96.18
2023-03-08T06:23:45.620Z,96.06
2023-03-08T06:26:17.032Z,96.32
2023-03-08T06:28:48.292Z,96.04
2023-03-08T06:31:20.645Z,96.05
2023-03-08T06:33:51.923Z,95.86
2023-03-08T06:36:23.419Z,95.95
2023-03-08T06:38:54.713Z,95.84
2023-03-08T06:41:26.022Z,96.34
2023-03-08T06:43:57.816Z,95.98
2023-03-08T06:46:29.272Z,95.57
2023-03-08T06:49:01.285Z,95.37
2023-03-08T06:51:32.568Z,95.96
2023-03-08T06:54:04.496Z,95.87
2023-03-08T06:56:35.785Z,95.86
2023-03-08T06:59:07.042Z,95.92
2023-03-08T07:01:38.469Z,96.12
2023-03-08T07:04:09.831Z,95.71
2023-03-08T07:06:41.142Z,95.54
2023-03-08T07:09:13.670Z,95.71
2023-03-08T07:11:45.023Z,95.44
2023-03-08T07:14:16.382Z,95.41
2023-03-08T07:16:48.520Z,95.57
2023-03-08T07:19:20.052Z,95.25
2023-03-08T07:21:51.337Z,95.29
2023-03-08T07:24:22.596Z,95.24
2023-03-08T07:26:53.852Z,95.53
2023-03-08T07:29:25.134Z,95.16
2023-03-08T07:31:56.487Z,95.29
2023-03-08T07:34:27.844Z,95.11
2023-03-08T07:36:59.105Z,94.97
2023-03-08T07:39:30.471Z,94.94
2023-03-08T07:42:01.805Z,95.36
2023-03-08T07:44:33.127Z,94.46
2023-03-08T07:47:08.263Z,94.41
2023-03-08T07:49:39.552Z,94.86
2023-03-08T07:52:10.928Z,94.50
2023-03-08T07:54:43.738Z,94.43
2023-03-08T07:57:15.588Z,94.82
2023-03-08T07:59:46.861Z,94.59
2023-03-08T08:02:18.228Z,93.99
2023-03-08T08:04:50.647Z,94.39
2023-03-08T08:07:22.039Z,94.21
2023-03-08T08:09:54.111Z,94.59
2023-03-08T08:12:25.391Z,93.99
2023-03-08T08:14:56.706Z,93.93
2023-03-08T08:17:27.972Z,93.86
2023-03-08T08:19:59.657Z,94.30
2023-03-08T08:22:30.929Z,93.71
2023-03-08T08:25:04.859Z,93.47
2023-03-08T08:27:36.398Z,93.76
2023-03-08T08:30:08.381Z,93.06
2023-03-08T08:32:40.032Z,93.31
2023-03-08T08:35:11.406Z,93.50
2023-03-08T08:37:42.713Z,92.67
2023-03-08T08:40:14.117Z,93.04
2023-03-08T08:42:46.501Z,93.48
2023-03-08T08:45:17.879Z,93.61
2023-03-08T08:47:49.137Z,93.12
2023-03-08T08:50:20.391Z,92.67
2023-03-08T08:52:51.693Z,92.46
2023-03-08T08:55:23.031Z,92.59
2023-03-08T08:57:54.289Z,92.65
2023-03-08T09:00:26.174Z,92.88
2023-03-08T09:02:57.436Z,92.69
2023-03-08T09:05:29.088Z,92.42
2023-03-08T09:08:01.241Z,92.41
2023-03-08T09:10:34.636Z,91.92
2023-03-08T09:13:06.647Z,92.37
2023-03-08T09:15:37.955Z,92.18
2023-03-08T09:18:09.305Z,92.64
2023-03-08T09:20:40.698Z,92.11
2023-03-08T09:23:11.979Z,92.50
2023-03-08T09:25:43.352Z,92.32
2023-03-08T09:28:14.749Z,92.40
2023-03-08T09:30:46.025Z,92.49
2023-03-08T09:33:17.671Z,92.24
2023-03-08T09:35:59.478Z,92.45
2023-03-08T09:38:30.817Z,92.56
2023-03-08T09:41:05.050Z,92.61
2023-03-08T09:44:03.503Z,92.26
2023-03-08T09:46:40.807Z,92.13
2023-03-08T09:49:19.248Z,92.48
2023-03-08T09:51:57.279Z,92.54
2023-03-08T09:54:29.216Z,92.06
2023-03-08T09:57:06.690Z,92.55
2023-03-08T09:59:45.416Z,91.83
2023-03-08T10:02:31.883Z,91.95
2023-03-08T10:05:21.638Z,91.36
2023-03-08T10:08:02.797Z,91.89
2023-03-08T10:10:47.484Z,91.47
2023-03-08T10:13:36.065Z,91.71
2023-03-08T10:16:24.987Z,90.96
2023-03-08T10:19:02.506Z,91.53
2023-03-08T10:21:37.953Z,91.10
2023-03-08T10:24:26.537Z,90.80
2023-03-08T10:27:15.097Z,91.31
2023-03-08T10:29:58.395Z,91.03
2023-03-08T10:32:29.770Z,91.33
2023-03-08T10:35:04.781Z,90.95
2023-03-08T10:37:36.451Z,91.05
2023-03-08T10:40:10.923Z,90.79
2023-03-08T10:43:05.992Z,90.66
2023-03-08T10:45:37.341Z,90.44
2023-03-08T10:48:19.990Z,90.29
2023-03-08T10:51:00.035Z,90.04
2023-03-08T10:53:32.641Z,90.00
2023-03-08T10:56:04.273Z,89.67
2023-03-08T10:58:39.392Z,89.72
2023-03-08T11:01:28.928Z,89.49
2023-03-08T11:04:16.865Z,89.40
2023-03-08T11:06:48.493Z,89.37
2023-03-08T11:09:28.413Z,89.51
2023-03-08T11:12:00.599Z,88.90
2023-03-08T11:14:31.947Z,88.94
2023-03-08T11:17:12.092Z,88.78
2023-03-08T11:19:49.355Z,88.53
2023-03-08T11:22:38.324Z,88.37
2023-03-08T11:25:09.554Z,88.63
2023-03-08T11:28:05.833Z,88.25
2023-03-08T11:30:51.126Z,88.15
2023-03-08T11:33:28.718Z,88.16
2023-03-08T11:36:13.458Z,87.89
2023-03-08T11:38:53.009Z,87.85
2023-03-08T11:41:42.432Z,87.98
2023-03-08T11:44:33.471Z,87.78
2023-03-08T11:47:26.239Z,87.59
2023-03-08T11:50:20.918Z,87.83
2023-03-08T11:53:26.185Z,88.35
2023-03-08T11:56:09.586Z,88.68
2023-03-08T11:59:09.032Z,88.27
2023-03-08T12:02:08.067Z,88.30
2023-03-08T12:04:51.981Z,88.87
2023-03-08T12:07:35.403Z,88.32
2023-03-08T12:10:12.832Z,88.15
2023-03-08T12:12:51.186Z,88.08
2023-03-08T12:15:35.522Z,88.05
2023-03-08T12:18:21.049Z,87.91
2023-03-08T12:21:02.840Z,87.93
2023-03-08T12:23:43.353Z,87.32
2023-03-08T12:26:21.919Z,87.17
2023-03-08T12:28:59.900Z,86.78
2023-03-08T12:31:40.779Z,86.83
2023-03-08T12:34:24.957Z,86.76
2023-03-08T12:36:56.663Z,86.25
2023-03-08T12:39:34.007Z,85.97
2023-03-08T12:42:08.461Z,86.05
2023-03-08T12:44:40.417Z,85.83
2023-03-08T12:47:11.662Z,85.82
2023-03-08T12:49:46.974Z,85.55
2023-03-08T12:52:18.349Z,85.09
2023-03-08T12:55:01.083Z,84.74
2023-03-08T12:57:45.971Z,84.38
2023-03-08T13:00:20.434Z,84.25
2023-03-08T13:03:06.400Z,84.30
2023-03-08T13:05:40.004Z,84.52
2023-03-08T13:08:14.296Z,83.95
2023-03-08T13:11:04.113Z,83.91
2023-03-08T13:13:58.055Z,84.01
2023-03-08T13:16:35.504Z,83.86
2023-03-08T13:19:15.870Z,83.68
2023-03-08T13:21:53.798Z,83.54
2023-03-08T13:24:36.225Z,83.25
2023-03-08T13:27:35.869Z,83.24
2023-03-08T13:30:35.465Z,83.23
2023-03-08T13:33:12.324Z,83.37
2023-03-08T13:35:43.654Z,83.56
2023-03-08T13:38:22.724Z,83.37
2023-03-08T13:40:55.786Z,82.91
2023-03-08T13:43:30.044Z,82.93
2023-03-08T13:46:10.671Z,82.78
2023-03-08T13:48:44.295Z,82.38
2023-03-08T13:51:18.872Z,82.17
2023-03-08T13:53:50.348Z,82.04
2023-03-08T13:56:27.766Z,81.95
2023-03-08T13:59:00.523Z,82.39
2023-03-08T14:01:31.950Z,82.10
2023-03-08T14:04:11.177Z,81.96
2023-03-08T14:06:49.213Z,81.88
2023-03-08T14:09:21.119Z,81.98
2023-03-08T14:11:57.474Z,81.88
2023-03-08T14:14:33.632Z,81.77
2023-03-08T14:17:05.175Z,81.68
2023-03-08T14:19:40.139Z,81.55
2023-03-08T14:22:28.697Z,81.50
2023-03-08T14:25:22.401Z,81.39
2023-03-08T14:27:54.225Z,81.76
2023-03-08T14:30:28.256Z,81.68
2023-03-08T14:33:02.681Z,81.45
2023-03-08T14:35:39.811Z,81.68
2023-03-08T14:38:22.622Z,81.61
2023-03-08T14:40:54.925Z,81.83
2023-03-08T14:43:27.307Z,81.53
2023-03-08T14:46:07.182Z,81.22
2023-03-08T14:48:38.586Z,81.39
2023-03-08T14:51:19.911Z,81.00
2023-03-08T14:54:06.498Z,80.63
2023-03-08T14:56:37.855Z,81.40
2023-03-08T14:59:14.016Z,80.97
2023-03-08T15:01:53.077Z,81.03
2023-03-08T15:04:25.628Z,81.30
2023-03-08T15:06:57.414Z,81.13
2023-03-08T15:09:29.963Z,81.22
2023-03-08T15:12:01.513Z,81.00
2023-03-08T15:14:32.845Z,81.36
2023-03-08T15:17:04.227Z,81.06
2023-03-08T15:19:35.747Z,81.84
2023-03-08T15:22:07.122Z,81.97
2023-03-08T15:24:39.361Z,81.39
2023-03-08T15:27:15.602Z,81.16
2023-03-08T15:29:46.839Z,81.57
2023-03-08T15:32:18.239Z,82.40
2023-03-08T15:34:49.809Z,82.29
2023-03-08T15:37:21.359Z,82.11
2023-03-08T15:39:52.659Z,82.70
2023-03-08T15:42:24.003Z,82.49
2023-03-08T15:44:55.278Z,82.50
2023-03-08T15:47:27.175Z,82.12
2023-03-08T15:49:58.507Z,81.85
2023-03-08T15:52:31.033Z,82.06
2023-03-08T15:55:03.820Z,82.59
2023-03-08T15:57:37.450Z,82.52
2023-03-08T16:00:13.947Z,82.37
2023-03-08T16:02:45.335Z,82.11
2023-03-08T16:05:19.528Z,82.58
2023-03-08T16:07:59.835Z,81.93
2023-03-08T16:10:40.262Z,81.79
2023-03-08T16:13:11.654Z,82.91
2023-03-08T16:15:43.069Z,82.66
2023-03-08T16:18:14.511Z,82.70
2023-03-08T16:20:46.352Z,81.76
2023-03-08T16:23:17.680Z,82.49
2023-03-08T16:26:13.544Z,81.74
2023-03-08T16:28:46.945Z,82.93
2023-03-08T16:31:20.830Z,83.75
2023-03-08T16:33:52.160Z,82.39
2023-03-08T16:36:23.436Z,82.97
2023-03-08T16:38:56.583Z,82.67
2023-03-08T16:41:29.932Z,83.35
2023-03-08T16:44:01.321Z,82.25
2023-03-08T16:46:33.532Z,82.49
2023-03-08T16:49:04.842Z,82.58
2023-03-08T16:51:38.499Z,83.02
2023-03-08T16:54:13.481Z,82.46
2023-03-08T16:56:44.836Z,82.55
2023-03-08T16:59:17.164Z,82.25
2023-03-08T17:01:49.828Z,82.07
2023-03-08T17:04:22.643Z,83.29
2023-03-08T17:06:53.977Z,82.07
2023-03-08T17:09:25.411Z,81.81
2023-03-08T17:11:57.787Z,82.16
2023-03-08T17:14:29.174Z,81.98
2023-03-08T17:17:00.542Z,82.32
2023-03-08T17:19:32.736Z,82.09
2023-03-08T17:22:05.196Z,82.97
2023-03-08T17:24:36.464Z,82.72
2023-03-08T17:27:07.793Z,82.87
2023-03-08T17:29:39.081Z,82.22
2023-03-08T17:32:10.391Z,82.50
2023-03-08T17:34:41.711Z,82.33
2023-03-08T17:37:13.022Z,82.27
2023-03-08T17:39:44.567Z,82.72
2023-03-08T17:42:15.953Z,82.57
2023-03-08T17:44:47.369Z,83.65
2023-03-08T17:47:18.752Z,82.36
2023-03-08T17:49:50.304Z,83.40
2023-03-08T17:52:22.681Z,82.96
2023-03-08T17:54:56.947Z,82.74
2023-03-08T17:57:28.233Z,83.09
2023-03-08T17:59:59.593Z,83.40
2023-03-08T18:02:31.249Z,83.43
2023-03-08T18:05:02.608Z,83.46
2023-03-08T18:07:34.066Z,83.68
2023-03-08T18:10:06.361Z,83.55
2023-03-08T18:12:37.736Z,83.72
2023-03-08T18:15:09.664Z,84.23
2023-03-08T18:17:41.388Z,84.11
2023-03-08T18:20:12.797Z,83.93
2023-03-08T18:22:47.020Z,84.24
2023-03-08T18:25:19.325Z,84.44
2023-03-08T18:27:50.711Z,84.47
2023-03-08T18:30:22.044Z,84.22
2023-03-08T18:32:53.328Z,84.12
2023-03-08T18:35:24.797Z,83.96
2023-03-08T18:37:56.093Z,84.24
2023-03-08T18:40:29.350Z,84.72
2023-03-08T18:43:01.017Z,84.11
2023-03-08T18:45:32.317Z,84.42
2023-03-08T18:48:03.587Z,84.20
2023-03-08T18:50:34.827Z,84.91
2023-03-08T18:53:06.108Z,85.05
2023-03-08T18:55:37.509Z,84.93
2023-03-08T18:58:08.809Z,85.53
2023-03-08T19:00:40.154Z,85.25
2023-03-08T19:03:11.429Z,84.75
2023-03-08T19:05:43.093Z,85.02
2023-03-08T19:08:14.589Z,85.09
2023-03-08T19:10:46.057Z,85.12
2023-03-08T19:13:17.435Z,84.80
2023-03-08T19:15:48.703Z,85.39
2023-03-08T19:18:19.984Z,85.24
2023-03-08T19:20:51.448Z,85.51
2023-03-08T19:23:22.752Z,85.70
2023-03-08T19:26:12.688Z,85.69
2023-03-08T19:28:44.035Z,85.62
2023-03-08T19:31:17.177Z,86.08
2023-03-08T19:33:49.716Z,85.90
2023-03-08T19:36:21.042Z,86.00
2023-03-08T19:38:52.519Z,86.39
2023-03-08T19:41:24.302Z,85.95
2023-03-08T19:43:55.587Z,86.33
2023-03-08T19:46:26.884Z,86.27
2023-03-08T19:48:58.208Z,86.05
2023-03-08T19:51:29.548Z,85.96
2023-03-08T19:54:00.960Z,86.40
2023-03-08T19:56:33.252Z,86.41
2023-03-08T19:59:04.612Z,86.42
2023-03-08T20:01:36.526Z,86.36
2023-03-08T20:04:10.077Z,86.38
2023-03-08T20:06:46.332Z,86.71
2023-03-08T20:09:21.344Z,86.47
2023-03-08T20:11:57.325Z,86.35
2023-03-08T20:14:29.711Z,86.74
2023-03-08T20:17:01.795Z,86.82
2023-03-08T20:19:34.058Z,86.30
2023-03-08T20:22:05.958Z,86.83
2023-03-08T20:24:37.225Z,86.46
2023-03-08T20:27:11.232Z,86.60
2023-03-08T20:29:42.509Z,86.84
2023-03-08T20:32:14.497Z,87.01
2023-03-08T20:34:45.854Z,86.41
2023-03-08T20:37:17.140Z,86.68
2023-03-08T20:39:52.378Z,86.81
2023-03-08T20:42:23.752Z,87.05
2023-03-08T20:44:55.156Z,87.35
2023-03-08T20:47:26.682Z,87.04
2023-03-08T20:49:58.253Z,87.30
2023-03-08T20:52:29.586Z,87.13
2023-03-08T20:55:00.855Z,87.12
2023-03-08T20:57:32.217Z,86.95
2023-03-08T21:00:04.998Z,87.32
2023-03-08T21:02:36.834Z,87.63
2023-03-08T21:05:08.473Z,87.71
2023-03-08T21:07:40.096Z,87.08
2023-03-08T21:10:11.373Z,87.41
2023-03-08T21:12:42.766Z,87.46
2023-03-08T21:15:14.057Z,87.27
2023-03-08T21:17:45.320Z,87.16
2023-03-08T21:20:16.807Z,87.02
2023-03-08T21:22:48.077Z,87.61
2023-03-08T21:25:19.397Z,87.79
2023-03-08T21:27:50.679Z,87.18
2023-03-08T21:30:22.332Z,87.22
2023-03-08T21:32:53.662Z,87.95
2023-03-08T21:35:25.017Z,87.73
2023-03-08T21:37:56.290Z,87.53
2023-03-08T21:40:27.583Z,88.08
2023-03-08T21:42:58.850Z,87.61
2023-03-08T21:45:30.245Z,87.58
2023-03-08T21:48:01.503Z,88.17
2023-03-08T21:50:33.486Z,88.47
2023-03-08T21:53:04.818Z,87.93
2023-03-08T21:55:39.996Z,88.34
2023-03-08T21:58:11.277Z,87.87
2023-03-08T22:00:42.571Z,88.25
2023-03-08T22:03:13.885Z,88.31
2023-03-08T22:05:45.308Z,88.74
2023-03-08T22:08:16.776Z,88.27
2023-03-08T22:10:48.610Z,88.75
2023-03-08T22:13:20.469Z,88.55
2023-03-08T22:15:51.805Z,87.99
2023-03-08T22:18:23.122Z,88.43
2023-03-08T22:20:54.990Z,88.48
2023-03-08T22:23:27.001Z,88.85
2023-03-08T22:25:58.315Z,88.59
2023-03-08T22:28:29.628Z,88.19
2023-03-08T22:31:00.935Z,88.56
2023-03-08T22:33:32.188Z,88.81
2023-03-08T22:36:08.489Z,88.46
2023-03-08T22:38:40.409Z,88.66
2023-03-08T22:41:17.272Z,89.05
2023-03-08T22:43:49.413Z,88.61
2023-03-08T22:46:23.454Z,88.55
2023-03-08T22:48:57.478Z,89.08
2023-03-08T22:51:28.839Z,88.65
2023-03-08T22:54:04.030Z,88.63
2023-03-08T22:56:35.450Z,88.67
2023-03-08T22:59:06.709Z,88.62
2023-03-08T23:01:39.114Z,88.78
2023-03-08T23:04:12.566Z,89.53
2023-03-08T23:06:44.218Z,89.10
2023-03-08T23:09:16.989Z,88.82
2023-03-08T23:11:48.665Z,89.73
2023-03-08T23:14:19.955Z,89.15
2023-03-08T23:16:51.558Z,89.25
2023-03-08T23:19:22.924Z,89.08
2023-03-08T23:21:54.208Z,89.48
2023-03-08T23:24:25.500Z,89.49
2023-03-08T23:27:01.658Z,89.83
2023-03-08T23:29:33.053Z,89.76
2023-03-08T23:32:04.711Z,89.77
2023-03-08T23:34:36.609Z,89.76
2023-03-08T23:37:08.056Z,89.87
2023-03-08T23:39:39.350Z,89.90
2023-03-08T23:42:10.607Z,89.87
2023-03-08T23:44:41.967Z,89.84
2023-03-08T23:47:13.281Z,89.96
2023-03-08T23:49:44.689Z,89.98
2023-03-08T23:52:15.954Z,89.71
2023-03-08T23:54:47.385Z,90.00
2023-03-08T23:57:19.020Z,90.14
2023-03-08T23:59:50.297Z,90.24
